Time;durP1;ratioP1;P1;durP2;ratioP2;P2;SDS_P1;SDS_P2;PMS_P1;PMS_P2;Temp;Humidity;BMP_temperature;BMP_pressure;BME280_temperature;BME280_humidity;BME280_pressure;Samples;Min_cycle;Max_cycle;Signal;HPM_P1;HPM_P2
2022/04/19 00:00:31;;;;;;;18.23;7.12;;;;;;;3.50;56.27;98659.12;1666681;80;21101;-88
2022/04/19 00:03:00;;;;;;;16.02;6.97;;;;;;;3.47;55.80;98656.14;1679234;82;21108;-90
2022/04/19 00:05:27;;;;;;;18.05;7.50;;;;;;;3.45;55.79;98658.30;1667723;82;21122;-86
2022/04/19 00:07:54;;;;;;;17.70;7.95;;;;;;;3.39;57.19;98661.30;1760460;81;21046;-85
2022/04/19 00:10:21;;;;;;;18.52;7.15;;;;;;;3.39;57.01;98654.88;1728327;83;20979;-84
2022/04/19 00:12:47;;;;;;;15.60;7.78;;;;;;;3.34;56.68;98654.05;1728828;83;21036;-85
2022/04/19 00:15:19;;;;;;;19.85;7.75;;;;;;;3.30;57.93;98651.07;1731091;83;21034;-89
2022/04/19 00:17:43;;;;;;;22.93;7.78;;;;;;;3.27;57.31;98649.78;1707410;80;21650;-85
2022/04/19 00:20:11;;;;;;;16.77;7.50;;;;;;;3.22;59.29;98651.49;1692850;84;21008;-87
2022/04/19 00:22:38;;;;;;;18.57;7.37;;;;;;;3.21;58.88;98648.95;1686330;83;21084;-87
2022/04/19 00:25:07;;;;;;;17.95;8.18;;;;;;;3.19;59.89;98645.09;1665589;81;21138;-87
2022/04/19 00:27:35;;;;;;;15.48;6.95;;;;;;;3.18;57.83;98633.98;1679130;81;21054;-85
2022/04/19 00:30:03;;;;;;;15.25;6.47;;;;;;;3.19;57.31;98644.66;1674266;85;21076;-84
2022/04/19 00:32:31;;;;;;;13.75;6.95;;;;;;;3.21;57.79;98646.39;1683858;85;21051;-87
2022/04/19 00:34:59;;;;;;;22.05;7.25;;;;;;;3.22;57.58;98645.07;1649796;83;21126;-88
2022/04/19 00:37:26;;;;;;;14.47;6.30;;;;;;;3.23;59.63;98642.94;1713387;79;21029;-90
2022/04/19 00:39:57;;;;;;;17.05;6.97;;;;;;;3.24;60.72;98645.08;1714820;84;21044;-88
2022/04/19 00:42:22;;;;;;;12.65;5.25;;;;;;;3.28;57.60;98642.92;1741635;81;21079;-86
2022/04/19 00:44:49;;;;;;;12.68;5.28;;;;;;;3.27;58.62;98639.94;1761130;81;20984;-87
2022/04/19 00:47:16;;;;;;;12.10;5.40;;;;;;;3.26;58.24;98636.49;1758832;81;21011;-88
2022/04/19 00:49:43;;;;;;;13.03;4.92;;;;;;;3.26;57.91;98633.92;1756400;81;21027;-87
2022/04/19 00:52:11;;;;;;;13.45;5.85;;;;;;;3.27;58.74;98631.80;1706311;80;21172;-90
2022/04/19 00:54:41;;;;;;;14.98;6.33;;;;;;;3.26;56.74;98627.50;1732757;80;21065;-87
2022/04/19 00:57:09;;;;;;;12.98;6.50;;;;;;;3.26;57.23;98626.22;1683187;82;21200;-87
2022/04/19 00:59:39;;;;;;;12.35;6.33;;;;;;;3.25;57.03;98621.95;1639573;80;21104;-89
2022/04/19 01:02:06;;;;;;;13.65;5.80;;;;;;;3.24;58.16;98630.95;1620757;87;21723;-87
2022/04/19 01:04:33;;;;;;;14.85;6.20;;;;;;;3.22;57.14;98628.81;1619958;88;21073;-87
2022/04/19 01:07:02;;;;;;;10.70;5.60;;;;;;;3.16;57.50;98621.97;1630791;88;21699;-86
2022/04/19 01:09:30;;;;;;;13.50;5.92;;;;;;;3.11;58.90;98626.28;1629849;85;21146;-83
2022/04/19 01:14:45;;;;;;;11.55;5.40;;;;;;;2.99;58.38;98617.74;1704657;82;21155;-86
2022/04/19 01:17:13;;;;;;;14.60;6.70;;;;;;;2.93;58.64;98619.05;1696051;82;21090;-83
2022/04/19 01:19:42;;;;;;;11.25;5.75;;;;;;;2.89;57.75;98619.91;1671300;80;21095;-85
2022/04/19 01:22:12;;;;;;;14.30;5.53;;;;;;;2.83;59.23;98616.07;1649901;84;21036;-85
2022/04/19 01:24:46;;;;;;;27.35;8.10;;;;;;;2.80;60.25;98616.06;1732042;82;21106;-89
2022/04/19 01:27:14;;;;;;;19.15;7.83;;;;;;;2.75;62.64;98614.80;1688423;80;21095;-85
2022/04/19 01:29:42;;;;;;;19.05;7.60;;;;;;;2.70;61.56;98616.50;1688660;81;21085;-86
2022/04/19 01:32:13;;;;;;;17.10;7.20;;;;;;;2.65;61.35;98622.52;1694595;81;21220;-84
2022/04/19 01:37:46;;;;;;;15.88;6.92;;;;;;;2.53;59.34;98617.81;1709503;80;21053;-83
2022/04/19 01:40:23;;;;;;;15.93;7.03;;;;;;;2.44;62.51;98616.52;1693003;81;21601;31
2022/04/19 01:43:00;;;;;;;15.58;7.33;;;;;;;2.37;64.00;98619.95;1704611;83;21023;-84
2022/04/19 01:45:32;;;;;;;12.35;6.58;;;;;;;2.27;62.46;98623.34;1704107;80;21801;-81
2022/04/19 01:48:01;;;;;;;23.42;7.25;;;;;;;2.17;61.10;98613.10;1758540;79;21051;-83
2022/04/19 02:29:00;;;;;;;15.85;5.53;;;;;;;1.13;65.60;98612.78;1717936;79;21151;31
2022/04/19 02:31:30;;;;;;;12.43;5.37;;;;;;;1.08;65.38;98609.36;1678321;83;21180;-84
2022/04/19 02:36:53;;;;;;;16.45;6.50;;;;;;;1.04;63.65;98607.20;1691884;84;21082;-83
2022/04/19 02:42:27;;;;;;;14.50;6.87;;;;;;;1.04;68.02;98607.20;1724353;79;21501;31
2022/04/19 02:44:56;;;;;;;14.78;6.65;;;;;;;1.07;67.44;98603.80;1676596;83;21301;-83
2022/04/19 02:56:31;;;;;;;16.73;7.20;;;;;;;1.02;67.97;98613.17;1762602;79;21116;-81
2022/04/19 02:59:09;;;;;;;23.10;8.77;;;;;;;0.94;69.09;98616.53;1730684;79;22497;31
2022/04/19 03:51:56;;;;;;;20.95;7.37;;;;;;;0.41;69.72;98656.66;1713097;79;21136;31
2022/04/19 03:57:34;;;;;;;18.40;6.60;;;;;;;0.42;69.81;98660.95;1720473;80;21542;31
2022/04/19 04:09:35;;;;;;;20.60;7.83;;;;;;;0.55;68.92;98672.97;1678852;81;22405;31
2022/04/19 04:53:32;;;;;;;20.77;8.98;;;;;;;1.18;70.38;98698.17;1727273;81;21169;31
2022/04/19 04:56:07;;;;;;;20.80;8.95;;;;;;;1.29;69.47;98700.78;1728352;80;21114;-82
2022/04/19 05:01:45;;;;;;;19.20;8.38;;;;;;;1.43;70.31;98702.99;1720684;79;22356;31
2022/04/19 05:04:13;;;;;;;17.75;8.38;;;;;;;1.49;68.92;98697.05;1754308;82;21101;-83
2022/04/19 05:06:41;;;;;;;24.02;8.33;;;;;;;1.51;68.78;98693.67;1754194;82;20989;-83
2022/04/19 05:09:08;;;;;;;20.27;9.05;;;;;;;1.54;67.59;98693.66;1754279;81;21006;-83
2022/04/19 05:11:35;;;;;;;26.17;8.63;;;;;;;1.51;67.58;98701.75;1754232;82;21064;-85
2022/04/19 05:14:03;;;;;;;18.07;7.20;;;;;;;1.52;67.84;98690.24;1748437;79;21032;-83
2022/04/19 05:16:30;;;;;;;17.37;5.92;;;;;;;1.53;67.84;98698.37;1757209;80;21115;-81
2022/04/19 05:27:57;;;;;;;17.05;5.85;;;;;;;1.82;66.62;98702.75;1647888;87;21039;-84
2022/04/19 05:30:24;;;;;;;17.00;6.33;;;;;;;1.88;66.65;98709.61;1647633;85;21023;-84
2022/04/19 05:32:51;;;;;;;15.40;6.67;;;;;;;1.97;66.55;98704.53;1648741;87;21044;-82
2022/04/19 05:35:18;;;;;;;13.43;5.45;;;;;;;2.08;66.52;98707.96;1648503;86;21031;-85
2022/04/19 05:37:46;;;;;;;18.80;7.20;;;;;;;2.14;65.46;98705.41;1653670;86;21088;-85
2022/04/19 05:40:14;;;;;;;25.30;6.92;;;;;;;2.24;65.47;98708.00;1699466;82;21005;-85
2022/04/19 05:42:41;;;;;;;18.35;6.40;;;;;;;2.35;65.39;98707.17;1708345;79;21118;-88
2022/04/19 05:45:09;;;;;;;16.87;7.05;;;;;;;2.46;65.55;98707.18;1757577;81;21080;-86
2022/04/19 05:47:36;;;;;;;15.68;6.25;;;;;;;2.57;65.53;98706.77;1763763;81;21346;-89
2022/04/19 05:50:03;;;;;;;13.85;6.78;;;;;;;2.70;65.21;98705.48;1760050;80;21512;-83
2022/04/19 05:52:30;;;;;;;17.80;7.12;;;;;;;2.85;64.87;98711.92;1746126;80;21278;-83
2022/04/19 05:54:57;;;;;;;24.82;8.05;;;;;;;3.00;64.46;98714.89;1743634;80;21076;-81
2022/04/19 05:57:23;;;;;;;10.75;4.92;;;;;;;3.13;64.36;98716.60;1751976;80;21012;-86
2022/04/19 05:59:50;;;;;;;11.28;4.87;;;;;;;3.24;63.86;98716.57;1743522;80;21068;-81
2022/04/19 06:05:04;;;;;;;16.50;6.05;;;;;;;3.41;63.99;98725.55;1778675;79;21051;-86
2022/04/19 06:07:32;;;;;;;9.95;5.30;;;;;;;3.53;64.17;98720.81;1807285;79;20991;-87
2022/04/19 06:10:00;;;;;;;10.75;5.62;;;;;;;3.64;64.01;98718.19;1774456;79;21116;-87
2022/04/19 06:12:29;;;;;;;12.60;5.28;;;;;;;3.76;63.89;98717.73;1781245;79;21027;31
2022/04/19 06:14:56;;;;;;;11.57;5.22;;;;;;;3.86;63.23;98717.68;1665740;84;21598;-87
2022/04/19 06:17:29;;;;;;;11.08;5.08;;;;;;;3.93;62.96;98716.80;1681142;84;21034;-85
2022/04/19 06:19:54;;;;;;;12.28;5.25;;;;;;;3.97;62.28;98716.77;1663146;84;21017;-85
2022/04/19 06:22:21;;;;;;;10.63;5.03;;;;;;;4.00;62.19;98722.36;1696010;84;21044;-87
2022/04/19 06:24:56;;;;;;;13.03;5.75;;;;;;;4.00;62.04;98719.78;1687470;85;20996;-87
2022/04/19 06:27:23;;;;;;;13.20;5.83;;;;;;;4.07;62.00;98724.02;1698073;83;21030;-86
2022/04/19 06:29:57;;;;;;;10.85;5.15;;;;;;;4.14;61.92;98727.44;1678488;85;20996;-87
2022/04/19 06:32:25;;;;;;;11.70;5.40;;;;;;;4.22;61.80;98726.08;1667352;85;21057;-87
2022/04/19 06:34:53;;;;;;;9.98;5.42;;;;;;;4.30;61.52;98725.64;1697615;83;21079;-87
2022/04/19 06:37:23;;;;;;;12.35;5.37;;;;;;;4.40;61.54;98724.71;1663832;84;21139;-89
2022/04/19 06:40:04;;;;;;;15.23;6.00;;;;;;;4.50;61.21;98721.66;1720092;79;21678;-87
2022/04/19 06:42:31;;;;;;;11.50;6.05;;;;;;;4.54;60.85;98722.90;1717544;84;20998;-87
2022/04/19 06:45:11;;;;;;;11.08;5.37;;;;;;;4.63;60.86;98721.13;1719852;82;21091;-85
2022/04/19 06:47:39;;;;;;;15.88;5.35;;;;;;;4.71;60.61;98724.05;1698432;84;20995;-85
2022/04/19 06:50:08;;;;;;;12.30;5.92;;;;;;;4.77;60.37;98710.28;1685737;81;21094;-86
2022/04/19 06:52:35;;;;;;;17.98;6.10;;;;;;;4.88;60.36;98720.07;1695109;84;21012;-86
2022/04/19 06:55:04;;;;;;;13.55;5.67;;;;;;;4.97;60.29;98718.72;1685769;84;21017;-85
2022/04/19 06:57:35;;;;;;;14.00;5.30;;;;;;;5.07;60.29;98715.59;1686771;84;20997;-86
2022/04/19 07:00:04;;;;;;;13.60;5.22;;;;;;;5.20;60.30;98717.64;1714364;81;21086;-88
2022/04/19 07:02:31;;;;;;;13.70;4.65;;;;;;;5.33;59.95;98714.09;1713186;83;21051;-87
2022/04/19 07:05:10;;;;;;;12.43;4.70;;;;;;;5.43;59.61;98713.98;1711160;80;21208;-85
2022/04/19 07:07:43;;;;;;;8.18;3.50;;;;;;;5.57;59.45;98712.09;1703676;83;21131;-86
2022/04/19 07:10:12;;;;;;;9.20;3.98;;;;;;;5.69;58.23;98709.81;1707533;80;21639;-87
2022/04/19 07:12:39;;;;;;;8.93;4.35;;;;;;;5.80;59.00;98714.42;1670349;79;20968;-85
2022/04/19 07:15:08;;;;;;;9.20;4.75;;;;;;;5.91;58.82;98703.99;1644629;81;21151;-87
2022/04/19 07:17:43;;;;;;;9.10;4.35;;;;;;;6.04;58.39;98710.72;1684416;82;22250;-89
2022/04/19 07:28:37;;;;;;;9.25;4.15;;;;;;;6.53;56.88;98703.58;1707794;82;21052;-84
2022/04/19 07:31:05;;;;;;;10.03;4.90;;;;;;;6.59;56.74;98696.63;1679526;84;20997;-85
2022/04/19 07:33:38;;;;;;;8.05;3.85;;;;;;;6.71;57.10;98696.44;1694376;81;21105;-87
2022/04/19 07:36:06;;;;;;;9.10;3.85;;;;;;;6.80;56.78;98698.84;1673764;84;21061;-86
2022/04/19 07:38:33;;;;;;;7.20;3.75;;;;;;;6.82;55.65;98696.25;1701124;80;21139;-88
2022/04/19 07:41:21;;;;;;;7.12;3.60;;;;;;;6.90;56.36;98699.55;1740097;79;21236;-86
2022/04/19 07:43:48;;;;;;;6.35;3.60;;;;;;;7.04;56.00;98697.58;1686919;84;21056;-84
2022/04/19 07:46:15;;;;;;;6.25;2.80;;;;;;;7.09;55.22;98687.19;1695841;84;21020;-85
2022/04/19 07:48:44;;;;;;;5.40;3.15;;;;;;;7.10;53.92;98695.34;1704349;82;21031;-83
2022/04/19 07:51:13;;;;;;;5.92;3.15;;;;;;;7.15;55.11;98693.54;1710000;83;21016;-83
2022/04/19 07:53:40;;;;;;;7.87;3.05;;;;;;;7.23;54.86;98689.08;1695044;84;21012;-82
2022/04/19 07:56:07;;;;;;;7.50;3.08;;;;;;;7.40;54.08;98690.50;1717778;80;21101;-89
2022/04/19 07:58:34;;;;;;;9.00;3.47;;;;;;;7.47;54.52;98685.63;1742861;80;21024;-90
2022/04/19 08:01:01;;;;;;;7.62;3.40;;;;;;;7.56;54.01;98681.14;1722666;82;21003;-92
2022/04/19 08:03:28;;;;;;;6.33;3.52;;;;;;;7.65;53.25;98676.21;1741265;81;21076;-88
2022/04/19 08:05:56;;;;;;;6.90;3.62;;;;;;;7.85;53.90;98680.98;1750309;81;21105;-90
2022/04/19 08:08:22;;;;;;;6.47;3.35;;;;;;;8.07;53.47;98680.53;1747761;81;21039;-84
2022/04/19 08:10:49;;;;;;;7.40;4.08;;;;;;;8.22;52.66;98680.66;1749068;80;20995;-83
2022/04/19 08:13:17;;;;;;;10.18;4.30;;;;;;;8.44;52.56;98678.01;1750051;80;20987;-84
2022/04/19 08:15:44;;;;;;;8.33;3.30;;;;;;;8.65;51.53;98676.64;1755918;80;20999;-83
2022/04/19 08:18:14;;;;;;;12.75;3.27;;;;;;;8.83;50.86;98677.09;1750159;80;21025;-84
2022/04/19 08:20:42;;;;;;;8.65;3.40;;;;;;;8.95;47.36;98676.77;1765582;79;20979;-86
2022/04/19 08:23:10;;;;;;;11.25;3.83;;;;;;;9.05;48.56;98674.80;1751914;82;21335;-84
2022/04/19 08:25:38;;;;;;;10.13;4.05;;;;;;;9.19;49.48;98669.27;1739154;80;20960;-83
2022/04/19 08:28:06;;;;;;;8.33;4.08;;;;;;;9.34;49.33;98671.00;1750659;81;21016;-82
2022/04/19 08:30:34;;;;;;;6.33;3.50;;;;;;;9.41;49.66;98670.83;1728033;80;20964;-83
2022/04/19 08:33:01;;;;;;;11.55;3.60;;;;;;;9.55;49.45;98663.55;1740939;81;21019;-84
2022/04/19 08:35:28;;;;;;;8.00;3.20;;;;;;;9.69;48.30;98666.59;1749534;80;21034;-84
2022/04/19 08:37:56;;;;;;;9.30;3.22;;;;;;;9.82;46.55;98666.24;1763360;79;21156;-87
2022/04/19 08:40:25;;;;;;;6.37;2.60;;;;;;;9.90;43.71;98662.52;1791922;79;21001;-83
2022/04/19 08:42:56;;;;;;;8.10;3.33;;;;;;;9.99;43.77;98661.41;1788313;79;21000;-88
2022/04/19 08:45:22;;;;;;;5.55;2.95;;;;;;;10.01;44.82;98659.63;1735704;80;21156;-90
2022/04/19 08:47:50;;;;;;;8.45;3.45;;;;;;;10.14;46.56;98657.03;1727030;81;21026;-90
2022/04/19 08:50:19;;;;;;;8.93;3.67;;;;;;;10.21;44.17;98649.92;1741140;80;21163;-90
2022/04/19 08:52:47;;;;;;;19.67;7.75;;;;;;;10.37;45.64;98644.30;1779458;79;20997;-86
2022/04/19 08:57:59;;;;;;;9.73;3.72;;;;;;;10.77;43.91;98643.01;1780526;79;21046;-87
2022/04/19 09:00:27;;;;;;;8.63;2.98;;;;;;;10.98;44.48;98644.02;1778698;79;20983;-85
2022/04/19 09:03:01;;;;;;;6.47;2.80;;;;;;;11.08;40.14;98637.59;1773450;79;21455;-89
2022/04/19 09:05:28;;;;;;;;;;;;;;;11.21;42.42;98636.28;1761485;80;21086;-87
2022/04/19 09:07:58;;;;;;;5.53;2.77;;;;;;;11.44;39.89;98631.58;1764381;80;20083;-88
2022/04/19 09:10:34;;;;;;;5.97;2.83;;;;;;;11.54;41.83;98633.39;1731116;79;21101;-88
2022/04/19 09:13:04;;;;;;;7.22;2.62;;;;;;;11.58;38.58;98634.98;1741721;82;21063;-87
2022/04/19 09:15:44;;;;;;;6.22;3.12;;;;;;;11.54;39.85;98636.00;1761602;79;21647;-90
2022/04/19 09:18:21;;;;;;;6.75;2.50;;;;;;;11.58;37.30;98640.61;1694207;81;20993;-88
2022/04/19 09:20:52;;;;;;;7.03;3.10;;;;;;;11.76;39.14;98634.75;1749179;79;21138;-90
2022/04/19 09:23:20;;;;;;;5.37;2.70;;;;;;;11.95;37.30;98637.53;1705591;81;21043;-85
2022/04/19 09:25:59;;;;;;;5.00;2.70;;;;;;;12.08;39.37;98640.07;1736803;80;21026;-84
2022/04/19 09:28:26;;;;;;;7.55;2.67;;;;;;;12.34;39.63;98633.00;1738125;81;21067;-90
2022/04/19 09:30:56;;;;;;;8.70;2.83;;;;;;;12.68;39.26;98635.55;1750552;80;21020;-89
2022/04/19 09:33:25;;;;;;;6.22;3.15;;;;;;;12.86;36.23;98630.03;1755815;79;21097;-90
2022/04/19 09:36:02;;;;;;;7.05;2.45;;;;;;;13.11;37.57;98631.13;1819749;77;21103;-91
2022/04/19 09:38:36;;;;;;;7.87;2.62;;;;;;;13.17;35.87;98638.72;1765050;77;22337;-89
2022/04/19 09:41:11;;;;;;;8.05;2.85;;;;;;;12.96;36.52;98637.02;1757773;78;21135;-93
2022/04/19 09:43:38;;;;;;;5.42;2.47;;;;;;;12.77;35.25;98639.52;1771239;78;21082;-89
2022/04/19 09:46:06;;;;;;;4.95;2.67;;;;;;;12.66;35.79;98630.39;1770785;79;21035;-91
2022/04/19 09:48:37;;;;;;;5.78;3.45;;;;;;;12.50;34.97;98630.63;1767232;79;21020;-89
2022/04/19 09:51:07;;;;;;;6.42;2.80;;;;;;;12.34;32.31;98633.00;1775409;80;21146;-88
2022/04/19 09:53:46;;;;;;;8.88;2.83;;;;;;;12.24;34.34;98639.48;1779620;80;21112;-88
2022/04/19 09:56:16;;;;;;;4.30;2.22;;;;;;;12.14;34.09;98646.81;1784861;80;21082;-87
2022/04/19 09:58:48;;;;;;;6.33;2.92;;;;;;;11.94;33.67;98636.69;1766451;81;21472;-87
2022/04/19 10:09:38;;;;;;;9.03;2.77;;;;;;;11.60;33.28;98636.20;1778130;80;21014;-87
2022/04/19 10:12:10;;;;;;;6.20;2.80;;;;;;;11.51;34.90;98642.60;1777468;79;21050;-87
2022/04/19 10:14:37;;;;;;;5.45;2.37;;;;;;;11.45;34.27;98641.06;1758456;81;21076;-87
2022/04/19 10:17:05;;;;;;;7.50;2.75;;;;;;;11.48;34.84;98640.97;1771624;80;20996;-87
2022/04/19 10:19:33;;;;;;;4.95;2.83;;;;;;;11.59;33.13;98641.87;1776523;80;21042;-88
2022/04/19 10:22:10;;;;;;;6.95;2.42;;;;;;;11.68;33.44;98641.55;1770246;80;20989;-89
2022/04/19 10:24:52;;;;;;;12.03;2.22;;;;;;;11.85;34.32;98634.39;1792968;79;21043;-88
2022/04/19 10:27:32;;;;;;;3.52;2.22;;;;;;;12.10;34.23;98642.16;1786691;80;20961;31
2022/04/19 10:30:00;;;;;;;5.28;2.47;;;;;;;12.11;34.06;98639.94;1729562;82;21025;-93
2022/04/19 10:32:33;;;;;;;7.90;2.98;;;;;;;12.08;32.78;98638.77;1759595;78;21117;-91
2022/04/19 10:35:03;;;;;;;5.70;2.75;;;;;;;12.17;34.08;98644.06;1740898;79;21187;-92
2022/04/19 10:37:30;;;;;;;4.35;2.40;;;;;;;12.19;33.23;98639.64;1709196;82;21134;-92
2022/04/19 10:40:05;;;;;;;19.12;7.37;;;;;;;12.27;33.04;98632.37;1705107;82;21000;-92
2022/04/19 10:42:38;;;;;;;8.65;4.28;;;;;;;12.22;33.47;98641.30;1742899;78;21207;-92
2022/04/19 10:45:17;;;;;;;5.17;2.50;;;;;;;12.21;34.17;98632.61;1762933;79;21546;-89
2022/04/19 10:47:59;;;;;;;4.28;2.52;;;;;;;12.13;34.86;98642.03;1722338;81;21095;-92
2022/04/19 10:50:33;;;;;;;59.25;28.90;;;;;;;12.23;34.41;98635.16;1759918;79;21054;-92
2022/04/19 10:53:25;;;;;;;23.18;13.68;;;;;;;12.23;34.57;98639.91;1713044;81;21110;-89
2022/04/19 10:56:06;;;;;;;5.60;3.60;;;;;;;12.22;35.06;98629.58;1668409;83;21278;-89
2022/04/19 10:58:43;;;;;;;7.80;4.22;;;;;;;12.15;34.55;98638.06;1646816;86;21057;-88
2022/04/19 11:01:35;;;;;;;10.25;5.72;;;;;;;12.12;33.82;98631.23;1643195;84;20991;-89
2022/04/19 11:03:59;;;;;;;8.03;3.72;;;;;;;11.74;33.07;98636.11;1604253;87;21079;-87
2022/04/19 11:06:35;;;;;;;4.10;2.40;;;;;;;11.70;34.24;98633.22;1668270;83;21675;-92
2022/04/19 11:09:09;;;;;;;5.45;3.12;;;;;;;11.67;33.66;98629.41;1716933;80;21205;-90
2022/04/19 11:11:49;;;;;;;6.25;3.87;;;;;;;11.61;33.88;98627.04;1738744;82;21137;-90
2022/04/19 11:14:41;;;;;;;8.35;3.92;;;;;;;11.61;34.19;98625.73;1733129;80;21131;-93
2022/04/19 11:17:29;;;;;;;6.62;2.65;;;;;;;11.82;35.10;98618.89;1708061;82;21892;-93
2022/04/19 11:20:10;;;;;;;6.10;2.60;;;;;;;11.96;33.28;98619.70;1633061;87;21133;-90
2022/04/19 11:22:51;;;;;;;5.00;2.85;;;;;;;11.99;32.65;98612.22;1745474;80;21106;-91
2022/04/19 11:25:42;;;;;;;8.13;3.17;;;;;;;11.89;33.41;98612.56;1727425;83;21050;-92
2022/04/19 11:28:24;;;;;;;7.25;2.42;;;;;;;11.93;32.26;98614.14;1730080;81;21204;-92
2022/04/19 11:31:06;;;;;;;5.03;2.90;;;;;;;11.96;33.38;98602.77;1796133;79;21223;-91
2022/04/19 11:33:36;;;;;;;7.78;2.90;;;;;;;12.11;33.91;98602.61;1666459;85;21085;-91
2022/04/19 11:36:09;;;;;;;5.53;3.15;;;;;;;12.43;31.86;98603.09;1698312;82;21047;-89
2022/04/19 11:38:43;;;;;;;5.58;2.67;;;;;;;12.81;32.71;98591.10;1710768;84;21021;-89
2022/04/19 11:46:46;;;;;;;8.60;2.75;;;;;;;14.10;31.86;98577.48;1723389;82;21067;-86
2022/04/19 11:49:35;;;;;;;4.65;2.17;;;;;;;14.21;31.78;98574.84;1735820;82;21067;-88
2022/04/19 11:52:09;;;;;;;6.58;2.58;;;;;;;14.31;31.87;98569.55;1696925;84;21059;-87
2022/04/19 11:54:36;;;;;;;4.60;2.65;;;;;;;14.70;30.87;98564.58;1721509;82;21019;-86
2022/04/19 11:57:07;;;;;;;5.60;2.02;;;;;;;15.13;29.95;98562.86;1736156;82;21139;-87
2022/04/19 11:59:41;;;;;;;6.50;2.30;;;;;;;15.44;29.62;98556.39;1746695;82;21022;-88
2022/04/19 12:02:17;;;;;;;4.92;2.25;;;;;;;15.79;30.70;98546.25;1749258;81;21111;-88
2022/04/19 12:04:56;;;;;;;6.65;2.50;;;;;;;16.10;29.61;98547.55;1748941;81;21054;-88
2022/04/19 12:07:26;;;;;;;5.33;2.08;;;;;;;16.41;27.52;98539.70;1740464;82;21085;-87
2022/04/19 12:09:54;;;;;;;4.00;2.05;;;;;;;16.75;27.89;98535.97;1747881;82;21034;-86
2022/04/19 12:12:20;;;;;;;5.10;2.40;;;;;;;17.14;27.25;98535.84;1744503;82;20987;-89
2022/04/19 12:14:52;;;;;;;4.65;1.95;;;;;;;17.65;25.02;98539.28;1747534;81;20968;-86
2022/04/19 12:17:22;;;;;;;4.92;2.40;;;;;;;18.18;27.55;98527.59;1716365;82;21516;-84
2022/04/19 12:20:03;;;;;;;6.10;2.42;;;;;;;18.74;26.89;98526.09;1742117;82;21017;-86
2022/04/19 12:22:33;;;;;;;8.40;2.70;;;;;;;19.52;25.62;98519.40;1733092;81;21002;-86
2022/04/19 12:25:00;;;;;;;5.37;2.12;;;;;;;20.04;22.24;98523.58;1718060;82;21099;-90
2022/04/19 12:33:54;;;;;;;11.40;3.02;;;;;;;21.91;22.60;98518.11;1732815;81;21104;-90
2022/04/19 12:36:25;;;;;;;6.72;3.33;;;;;;;22.89;24.55;98514.92;1711366;83;21015;-88
2022/04/19 12:39:03;;;;;;;5.37;3.50;;;;;;;22.94;22.63;98514.03;1699535;83;21050;-86
2022/04/19 12:41:44;;;;;;;7.62;2.92;;;;;;;22.82;21.27;98508.83;1722548;82;21089;-88
2022/04/19 12:44:15;;;;;;;7.65;2.47;;;;;;;22.82;18.93;98506.67;1737202;82;21040;-86
2022/04/19 12:46:57;;;;;;;5.28;2.50;;;;;;;22.68;18.57;98513.60;1694708;82;21069;-88
2022/04/19 12:49:37;;;;;;;21.68;4.53;;;;;;;23.22;18.23;98506.76;1721122;82;21118;-89
2022/04/19 12:52:08;;;;;;;6.28;2.30;;;;;;;23.35;19.56;98501.21;1716204;83;21507;-88
2022/04/19 12:54:46;;;;;;;3.50;2.08;;;;;;;23.39;19.19;98501.30;1720747;83;21070;-89
2022/04/19 12:57:23;;;;;;;4.08;2.17;;;;;;;23.50;16.60;98504.34;1718637;82;21026;-87
2022/04/19 12:59:48;;;;;;;6.67;2.50;;;;;;;23.56;19.00;98506.46;1712472;82;21074;-91
2022/04/19 13:02:17;;;;;;;5.80;2.27;;;;;;;23.56;17.76;98501.65;1741913;81;21074;-89
2022/04/19 13:04:44;;;;;;;7.05;2.37;;;;;;;23.45;17.39;98502.58;1710798;83;21074;-89
2022/04/19 13:16:04;;;;;;;4.28;2.10;;;;;;;22.22;18.99;98499.70;1682180;81;21161;-85
2022/04/19 13:18:30;;;;;;;4.78;1.80;;;;;;;21.38;18.94;98504.69;1642684;83;21051;-91
2022/04/19 13:20:57;;;;;;;5.50;1.90;;;;;;;21.53;19.06;98507.48;1702093;79;21107;-86
2022/04/19 13:23:24;;;;;;;3.80;2.10;;;;;;;21.26;19.53;98507.33;1747202;82;21082;-79
2022/04/19 13:25:51;;;;;;;5.20;2.20;;;;;;;21.35;19.43;98511.56;1744474;82;21036;-89
2022/04/19 13:28:17;;;;;;;3.70;2.00;;;;;;;21.88;18.05;98504.28;1739723;82;20991;-90
2022/04/19 13:30:44;;;;;;;4.17;2.45;;;;;;;22.49;18.12;98508.53;1724626;82;21023;-87
2022/04/19 13:33:25;;;;;;;6.40;2.33;;;;;;;23.38;18.87;98506.27;1738674;82;21063;-87
2022/04/19 13:35:55;;;;;;;3.77;1.95;;;;;;;23.86;17.12;98502.09;1691507;83;21331;-88
2022/04/19 13:38:25;;;;;;;3.52;2.05;;;;;;;24.19;16.63;98497.36;1695703;83;21028;-87
2022/04/19 13:40:53;;;;;;;4.40;1.80;;;;;;;24.65;18.02;98490.98;1673442;83;21003;-85
2022/04/19 13:43:22;;;;;;;3.72;2.25;;;;;;;24.65;16.57;98501.16;1720903;82;21029;-81
2022/04/19 13:45:48;;;;;;;5.12;2.67;;;;;;;24.65;14.43;98501.16;1739431;82;21156;-79
2022/04/19 13:48:15;;;;;;;5.15;2.30;;;;;;;24.97;16.03;98503.95;1740774;81;21003;-81
2022/04/19 13:50:42;;;;;;;4.47;2.10;;;;;;;24.96;16.75;98500.43;1753384;81;21063;-81
2022/04/19 13:53:09;;;;;;;6.95;2.45;;;;;;;24.19;17.49;98500.02;1762938;81;22204;-80
2022/04/19 13:55:36;;;;;;;3.12;1.70;;;;;;;22.61;17.62;98506.17;1767935;80;21039;-80
2022/04/19 13:58:03;;;;;;;5.95;2.22;;;;;;;21.17;19.18;98496.17;1759098;80;21585;-78
2022/04/19 14:00:30;;;;;;;4.20;1.72;;;;;;;20.13;20.31;98496.14;1764202;80;21595;-82
2022/04/19 14:02:57;;;;;;;7.65;2.40;;;;;;;19.43;20.54;98495.83;1765845;81;20972;-81
2022/04/19 14:05:23;;;;;;;5.70;3.08;;;;;;;18.01;21.83;98499.30;1763499;80;21595;-83
2022/04/19 14:07:50;;;;;;;4.92;1.87;;;;;;;16.84;22.72;98502.62;1766965;80;21008;-82
2022/04/19 14:10:17;;;;;;;4.37;2.00;;;;;;;16.22;22.88;98505.83;1769219;80;20949;-78
2022/04/19 14:12:43;;;;;;;6.12;3.42;;;;;;;15.41;24.18;98505.94;1762417;80;20984;-79
2022/04/19 14:15:10;;;;;;;7.17;2.50;;;;;;;14.99;23.83;98509.45;1767331;80;21003;-80
2022/04/19 14:17:37;;;;;;;6.87;2.00;;;;;;;14.29;26.34;98508.63;1762363;80;21024;-79
2022/04/19 14:20:05;;;;;;;5.40;2.52;;;;;;;13.95;26.55;98505.49;1764761;81;21104;-82
2022/04/19 14:22:33;;;;;;;3.92;2.17;;;;;;;13.75;25.88;98512.98;1752601;80;21044;-82
2022/04/19 14:25:00;;;;;;;4.35;2.05;;;;;;;13.57;25.94;98512.08;1745008;81;21087;-78
2022/04/19 14:27:27;;;;;;;3.55;2.27;;;;;;;13.27;26.06;98518.62;1749586;81;21082;-79
2022/04/19 14:35:26;;;;;;;7.45;2.05;;;;;;;12.84;26.88;98511.39;1771713;79;21040;-85
2022/04/19 14:37:53;;;;;;;5.55;2.50;;;;;;;12.72;27.18;98506.71;1778456;79;20981;-82
2022/04/19 14:40:19;;;;;;;3.62;2.00;;;;;;;12.56;27.57;98499.16;1781916;79;21052;-82
2022/04/19 14:42:46;;;;;;;5.37;2.90;;;;;;;12.48;27.91;98506.00;1767171;79;21003;-84
2022/04/19 14:45:13;;;;;;;7.22;3.25;;;;;;;12.38;28.57;98507.30;1768374;79;21003;-81
2022/04/19 14:47:40;;;;;;;4.10;2.25;;;;;;;12.36;27.43;98507.36;1776769;79;21003;-79
2022/04/19 14:50:08;;;;;;;6.25;2.05;;;;;;;12.33;28.06;98500.95;1769256;79;21545;-78
2022/04/19 14:52:34;;;;;;;4.75;2.45;;;;;;;12.22;28.09;98507.09;1767483;79;21510;-79
2022/04/19 14:55:01;;;;;;;5.45;2.55;;;;;;;12.16;28.55;98496.92;1762370;79;21027;-80
2022/04/19 14:57:28;;;;;;;4.62;2.20;;;;;;;12.16;27.80;98502.13;1769412;79;21002;-81
2022/04/19 14:59:54;;;;;;;5.30;2.60;;;;;;;12.13;27.92;98501.78;1775818;79;21044;-84
2022/04/19 15:02:21;;;;;;;7.33;2.70;;;;;;;12.11;28.41;98514.02;1775691;80;21477;-83
2022/04/19 15:04:48;;;;;;;5.45;2.22;;;;;;;12.24;28.56;98508.72;1776066;80;20988;-83
2022/04/19 15:07:14;;;;;;;4.53;2.30;;;;;;;12.54;28.18;98511.79;1743627;81;21008;-83
2022/04/19 15:09:41;;;;;;;4.42;2.52;;;;;;;12.90;27.89;98508.51;1732062;82;20963;-85
2022/04/19 15:12:13;;;;;;;3.62;2.00;;;;;;;13.27;27.81;98502.09;1732192;82;21091;-83
2022/04/19 15:14:40;;;;;;;5.00;1.72;;;;;;;13.61;27.56;98498.83;1741630;81;21070;-84
2022/04/19 15:17:06;;;;;;;3.62;2.05;;;;;;;14.02;27.11;98495.98;1740000;82;20999;-85
2022/04/19 15:19:33;;;;;;;4.67;2.02;;;;;;;14.46;27.04;98502.11;1723870;83;21054;-83
2022/04/19 15:22:00;;;;;;;5.12;2.72;;;;;;;14.75;26.09;98502.41;1766302;80;20993;-82
2022/04/19 15:24:27;;;;;;;4.85;2.08;;;;;;;14.61;25.57;98500.97;1776183;79;21051;-82
2022/04/19 15:26:53;;;;;;;3.17;2.00;;;;;;;14.44;25.51;98501.34;1758742;80;20995;-83
2022/04/19 15:29:20;;;;;;;7.12;2.10;;;;;;;14.31;25.31;98502.40;1778701;80;21014;-85
2022/04/19 15:31:48;;;;;;;5.33;1.90;;;;;;;14.37;25.71;98498.64;1763448;80;21023;-84